createdAt,value
2024-02-12T00:00:51.181Z,98534.37
2024-02-12T00:06:19.235Z,98534.90
2024-02-12T00:11:25.672Z,98536.59
2024-02-12T00:16:31.619Z,98540.17
2024-02-12T00:21:37.740Z,98540.30
2024-02-12T00:26:43.353Z,98537.91
2024-02-12T00:31:49.251Z,98537.48
2024-02-12T00:36:55.128Z,98537.46
2024-02-12T00:42:00.892Z,98536.90
2024-02-12T00:47:06.915Z,98536.49
2024-02-12T00:52:13.020Z,98533.86
2024-02-12T00:57:18.576Z,98531.14
2024-02-12T01:02:24.422Z,98533.56
2024-02-12T01:07:30.923Z,98534.31
2024-02-12T01:12:37.296Z,98534.88
2024-02-12T01:17:47.173Z,98531.55
2024-02-12T01:22:57.744Z,98530.08
2024-02-12T01:28:03.973Z,98532.70
2024-02-12T01:33:09.777Z,98533.34
2024-02-12T01:38:16.031Z,98532.25
2024-02-12T01:43:32.833Z,98535.15
2024-02-12T01:48:39.866Z,98535.94
2024-02-12T01:53:49.107Z,98534.09
2024-02-12T01:58:58.798Z,98533.00
2024-02-12T02:04:08.288Z,98530.83
2024-02-12T02:09:15.688Z,98530.27
2024-02-12T02:14:21.552Z,98529.58
2024-02-12T02:19:27.863Z,98530.55
2024-02-12T02:24:33.542Z,98535.61
2024-02-12T02:29:39.853Z,98538.67
2024-02-12T02:34:47.752Z,98540.98
2024-02-12T02:39:53.778Z,98540.85
2024-02-12T02:44:59.609Z,98542.43
2024-02-12T02:50:06.258Z,98540.16
2024-02-12T02:55:13.184Z,98543.45
2024-02-12T03:00:19.887Z,98542.23
2024-02-12T03:05:29.734Z,98545.84
2024-02-12T03:10:35.681Z,98546.03
2024-02-12T03:15:41.441Z,98551.77
2024-02-12T03:20:47.227Z,98549.27
2024-02-12T03:25:53.090Z,98555.83
2024-02-12T03:30:59.121Z,98560.96
2024-02-12T03:36:06.349Z,98567.52
2024-02-12T03:41:25.859Z,98567.92
2024-02-12T03:46:37.146Z,98575.77
2024-02-12T03:52:01.832Z,98579.39
2024-02-12T03:57:28.775Z,98580.21
2024-02-12T04:02:36.974Z,98580.94
2024-02-12T04:07:43.021Z,98582.38
2024-02-12T04:12:50.033Z,98582.89
2024-02-12T04:17:57.263Z,98585.77
2024-02-12T04:23:03.312Z,98585.18
2024-02-12T04:28:11.599Z,98586.45
2024-02-12T04:33:18.158Z,98586.23
2024-02-12T04:38:24.012Z,98589.29
2024-02-12T04:43:29.882Z,98593.76
2024-02-12T04:48:35.630Z,98592.60
2024-02-12T04:53:41.640Z,98592.75
2024-02-12T04:58:47.304Z,98594.79
2024-02-12T05:03:53.545Z,98600.80
2024-02-12T05:09:01.293Z,98605.23
2024-02-12T05:14:08.691Z,98610.73
2024-02-12T05:19:35.293Z,98608.59
2024-02-12T05:24:41.472Z,98609.02
2024-02-12T05:29:47.056Z,98614.83
2024-02-12T05:34:55.890Z,98616.23
2024-02-12T05:40:03.269Z,98620.29
2024-02-12T05:45:11.206Z,98632.24
2024-02-12T05:50:18.495Z,98638.00
2024-02-12T05:55:24.246Z,98638.59
2024-02-12T06:00:29.881Z,98643.70
2024-02-12T06:05:35.791Z,98646.81
2024-02-12T06:10:41.449Z,98647.34
2024-02-12T06:15:47.180Z,98656.67
2024-02-12T06:20:52.880Z,98660.45
2024-02-12T06:25:59.878Z,98664.33
2024-02-12T06:31:05.726Z,98665.33
2024-02-12T06:36:11.624Z,98665.13
2024-02-12T06:41:17.359Z,98665.80
2024-02-12T06:46:24.148Z,98667.02
2024-02-12T06:51:29.810Z,98672.79
2024-02-12T06:56:40.783Z,98671.55
2024-02-12T07:01:46.432Z,98672.32
2024-02-12T07:06:51.969Z,98679.60
2024-02-12T07:11:57.874Z,98687.81
2024-02-12T07:17:03.674Z,98693.24
2024-02-12T07:22:09.518Z,98691.48
2024-02-12T07:27:15.064Z,98692.95
2024-02-12T07:32:21.037Z,98698.93
2024-02-12T07:37:26.961Z,98709.15
2024-02-12T07:42:32.716Z,98707.98
2024-02-12T07:47:39.189Z,98717.89
2024-02-12T07:52:45.045Z,98717.13
2024-02-12T07:57:50.997Z,98718.98
2024-02-12T08:02:56.581Z,98721.46
2024-02-12T08:08:04.160Z,98722.51
2024-02-12T08:13:10.282Z,98728.56
2024-02-12T08:18:16.444Z,98735.91
2024-02-12T08:23:23.875Z,98736.70
2024-02-12T08:28:30.437Z,98741.59
2024-02-12T08:33:38.055Z,98742.21
2024-02-12T08:38:44.199Z,98749.13
2024-02-12T08:43:50.331Z,98757.71
2024-02-12T08:48:56.303Z,98764.92
2024-02-12T08:54:02.049Z,98773.69
2024-02-12T08:59:08.332Z,98778.34
2024-02-12T09:04:14.508Z,98781.91
2024-02-12T09:09:21.469Z,98785.13
2024-02-12T09:14:28.065Z,98795.16
2024-02-12T09:19:34.342Z,98797.71
2024-02-12T09:24:42.292Z,98807.38
2024-02-12T09:29:49.067Z,98811.66
2024-02-12T09:34:57.192Z,98815.09
2024-02-12T09:40:04.389Z,98818.27
2024-02-12T09:45:12.806Z,98828.11
2024-02-12T09:50:19.259Z,98829.70
2024-02-12T09:55:26.394Z,98830.23
2024-02-12T10:00:32.310Z,98835.02
2024-02-12T10:05:40.004Z,98838.77
2024-02-12T10:10:45.704Z,98840.49
2024-02-12T10:15:56.996Z,98843.97
2024-02-12T10:21:05.709Z,98841.98
2024-02-12T10:26:11.650Z,98840.00
2024-02-12T10:31:19.968Z,98842.98
2024-02-12T10:36:32.284Z,98840.35
2024-02-12T10:41:45.733Z,98842.14
2024-02-12T10:46:52.754Z,98847.06
2024-02-12T10:52:00.659Z,98853.34
2024-02-12T10:57:09.639Z,98860.14
2024-02-12T11:02:16.342Z,98863.39
2024-02-12T11:07:28.966Z,98864.80
2024-02-12T11:12:41.077Z,98867.58
2024-02-12T11:17:48.280Z,98871.61
2024-02-12T11:22:56.513Z,98868.17
2024-02-12T11:28:02.618Z,98867.13
2024-02-12T11:33:12.011Z,98868.54
2024-02-12T11:38:18.569Z,98871.80
2024-02-12T11:43:24.337Z,98866.09
2024-02-12T11:48:30.866Z,98872.56
2024-02-12T11:53:40.678Z,98879.33
2024-02-12T11:58:46.394Z,98885.66
2024-02-12T12:03:53.322Z,98889.72
2024-02-12T12:08:59.807Z,98890.95
2024-02-12T12:14:06.727Z,98892.86
2024-02-12T12:19:12.492Z,98892.19
2024-02-12T12:24:18.919Z,98893.85
2024-02-12T12:29:28.178Z,98899.33
2024-02-12T12:34:34.691Z,98899.36
2024-02-12T12:39:40.294Z,98900.62
2024-02-12T12:44:46.898Z,98905.92
2024-02-12T12:49:55.824Z,98909.94
2024-02-12T12:55:01.714Z,98912.77
2024-02-12T13:00:19.830Z,98918.57
2024-02-12T13:05:26.680Z,98927.33
2024-02-12T13:10:41.569Z,98924.42
2024-02-12T13:15:48.293Z,98929.22
2024-02-12T13:20:54.517Z,98931.67
2024-02-12T13:26:04.804Z,98935.79
2024-02-12T13:31:14.585Z,98933.44
2024-02-12T13:36:22.741Z,98937.30
2024-02-12T13:41:29.323Z,98943.06
2024-02-12T13:46:37.654Z,98951.67
2024-02-12T13:51:44.742Z,98955.70
2024-02-12T13:56:51.361Z,98958.40
2024-02-12T14:02:03.279Z,98955.91
2024-02-12T14:07:14.684Z,98961.42
2024-02-12T14:12:21.653Z,98962.56
2024-02-12T14:17:27.789Z,98971.67
2024-02-12T14:22:34.917Z,98979.22
2024-02-12T14:27:41.013Z,98984.25
2024-02-12T14:32:47.939Z,98987.98
2024-02-12T14:37:57.408Z,98995.35
2024-02-12T14:43:03.302Z,98996.56
2024-02-12T14:48:10.029Z,98997.66
2024-02-12T14:53:22.171Z,98999.90
2024-02-12T14:58:28.518Z,99004.38
2024-02-12T15:03:34.207Z,99011.42
2024-02-12T15:08:42.484Z,99016.99
2024-02-12T15:13:48.517Z,99022.88
2024-02-12T15:18:54.594Z,99029.20
2024-02-12T15:24:00.835Z,99035.74
2024-02-12T15:29:06.634Z,99038.20
2024-02-12T15:34:12.507Z,99048.55
2024-02-12T15:39:18.726Z,99051.34
2024-02-12T15:44:24.782Z,99058.85
2024-02-12T15:49:30.799Z,99069.70
2024-02-12T15:54:44.301Z,99078.70
2024-02-12T15:59:50.938Z,99083.60
2024-02-12T16:04:56.533Z,99089.86
2024-02-12T16:10:03.425Z,99095.12
2024-02-12T16:15:10.662Z,99095.08
2024-02-12T16:20:16.385Z,99102.34
2024-02-12T16:25:22.003Z,99111.82
2024-02-12T16:30:28.714Z,99117.61
2024-02-12T16:35:36.298Z,99123.70
2024-02-12T16:40:43.326Z,99123.42
2024-02-12T16:45:49.119Z,99132.25
2024-02-12T16:50:55.287Z,99140.08
2024-02-12T16:56:02.258Z,99140.32
2024-02-12T17:01:10.608Z,99148.25
2024-02-12T17:06:23.094Z,99150.83
2024-02-12T17:11:30.884Z,99160.83
2024-02-12T17:16:42.566Z,99172.29
2024-02-12T17:21:51.351Z,99174.43
2024-02-12T17:26:57.894Z,99180.72
2024-02-12T17:32:05.262Z,99183.96
2024-02-12T17:37:12.026Z,99187.64
2024-02-12T17:42:18.992Z,99193.80
2024-02-12T17:47:25.774Z,99205.12
2024-02-12T17:52:32.784Z,99209.52
2024-02-12T17:57:38.808Z,99218.21
2024-02-12T18:02:44.726Z,99222.45
2024-02-12T18:07:50.782Z,99229.34
2024-02-12T18:12:57.672Z,99238.58
2024-02-12T18:18:05.587Z,99249.45
2024-02-12T18:23:14.638Z,99255.40
2024-02-12T18:28:20.439Z,99263.70
2024-02-12T18:33:26.348Z,99270.88
2024-02-12T18:38:32.097Z,99277.70
2024-02-12T18:43:37.734Z,99284.80
2024-02-12T18:48:45.024Z,99289.50
2024-02-12T18:53:51.509Z,99293.38
2024-02-12T18:58:57.754Z,99292.02
2024-02-12T19:04:03.633Z,99298.45
2024-02-12T19:09:11.246Z,99302.11
2024-02-12T19:14:17.574Z,99310.77
2024-02-12T19:19:23.916Z,99316.02
2024-02-12T19:24:30.081Z,99325.03
2024-02-12T19:29:36.214Z,99331.55
2024-02-12T19:34:41.929Z,99338.64
2024-02-12T19:39:50.275Z,99340.77
2024-02-12T19:45:00.579Z,99344.16
2024-02-12T19:50:07.619Z,99350.97
2024-02-12T19:55:13.424Z,99355.76
2024-02-12T20:00:19.405Z,99359.92
2024-02-12T20:05:25.457Z,99364.75
2024-02-12T20:10:31.570Z,99362.20
2024-02-12T20:15:37.964Z,99366.73
2024-02-12T20:20:43.936Z,99369.07
2024-02-12T20:25:51.183Z,99372.03
2024-02-12T20:30:56.978Z,99383.16
2024-02-12T20:36:02.927Z,99393.40
2024-02-12T20:41:10.782Z,99391.73
2024-02-12T20:46:16.683Z,99387.13
2024-02-12T20:51:24.237Z,99394.50
2024-02-12T20:56:33.977Z,99402.37
2024-02-12T21:01:45.516Z,99412.17
2024-02-12T21:06:51.681Z,99410.86
2024-02-12T21:11:59.429Z,99418.95
2024-02-12T21:17:05.824Z,99419.70
2024-02-12T21:22:11.730Z,99424.16
2024-02-12T21:27:17.732Z,99427.58
2024-02-12T21:32:27.421Z,99431.73
2024-02-12T21:37:35.352Z,99436.19
2024-02-12T21:42:41.541Z,99439.85
2024-02-12T21:47:48.362Z,99447.04
2024-02-12T21:52:57.093Z,99451.02
2024-02-12T21:58:03.077Z,99455.95
2024-02-12T22:03:08.709Z,99455.59
2024-02-12T22:08:16.501Z,99457.91
2024-02-12T22:13:22.862Z,99464.42
2024-02-12T22:18:29.347Z,99471.48
2024-02-12T22:23:35.567Z,99473.64
2024-02-12T22:28:41.556Z,99483.05
2024-02-12T22:33:47.594Z,99488.42
2024-02-12T22:38:53.727Z,99497.88
2024-02-12T22:43:59.735Z,99503.91
2024-02-12T22:49:07.385Z,99509.58
2024-02-12T22:54:13.371Z,99510.31
2024-02-12T22:59:19.625Z,99513.07
2024-02-12T23:04:26.426Z,99522.45
2024-02-12T23:09:33.152Z,99521.11
2024-02-12T23:14:39.043Z,99530.63
2024-02-12T23:19:45.446Z,99529.14
2024-02-12T23:24:52.180Z,99532.38
2024-02-12T23:29:58.022Z,99531.38
2024-02-12T23:35:04.509Z,99532.84
2024-02-12T23:40:11.246Z,99535.79
2024-02-12T23:45:17.245Z,99537.10
2024-02-12T23:50:23.086Z,99540.85
2024-02-12T23:55:33.173Z,99546.12
